sensor_id;sensor_type;location;lat;lon;timestamp;temperature;humidity
24158;DHT22;12316;50.904;4.200;2022-10-16T00:00:33;14.90;99.90
24158;DHT22;12316;50.904;4.200;2022-10-16T00:02:59;15.00;99.90
24158;DHT22;12316;50.904;4.200;2022-10-16T00:05:25;14.90;99.90
24158;DHT22;12316;50.904;4.200;2022-10-16T00:07:50;14.90;99.90
24158;DHT22;12316;50.904;4.200;2022-10-16T00:10:16;15.00;99.90
24158;DHT22;12316;50.904;4.200;2022-10-16T00:12:41;15.00;99.90
24158;DHT22;12316;50.904;4.200;2022-10-16T00:15:07;15.00;99.90
24158;DHT22;12316;50.904;4.200;2022-10-16T00:17:33;15.00;99.90
24158;DHT22;12316;50.904;4.200;2022-10-16T00:19:59;15.00;99.90
24158;DHT22;12316;50.904;4.200;2022-10-16T00:22:24;15.00;99.90
24158;DHT22;12316;50.904;4.200;2022-10-16T00:24:50;15.00;99.90
24158;DHT22;12316;50.904;4.200;2022-10-16T00:27:16;15.00;99.90
24158;DHT22;12316;50.904;4.200;2022-10-16T00:29:42;14.90;99.90
24158;DHT22;12316;50.904;4.200;2022-10-16T00:32:08;14.90;99.90
24158;DHT22;12316;50.904;4.200;2022-10-16T00:34:33;14.90;99.90
24158;DHT22;12316;50.904;4.200;2022-10-16T00:36:59;14.90;99.90
24158;DHT22;12316;50.904;4.200;2022-10-16T00:39:24;14.90;99.90
24158;DHT22;12316;50.904;4.200;2022-10-16T00:41:51;14.90;99.90
24158;DHT22;12316;50.904;4.200;2022-10-16T00:47:34;14.80;99.90
24158;DHT22;12316;50.904;4.200;2022-10-16T00:50:04;14.80;99.90
24158;DHT22;12316;50.904;4.200;2022-10-16T00:52:31;14.90;99.90
24158;DHT22;12316;50.904;4.200;2022-10-16T00:54:58;14.90;99.90
24158;DHT22;12316;50.904;4.200;2022-10-16T00:57:25;14.80;99.90
24158;DHT22;12316;50.904;4.200;2022-10-16T00:59:51;14.80;99.90
24158;DHT22;12316;50.904;4.200;2022-10-16T01:02:17;14.70;99.90
24158;DHT22;12316;50.904;4.200;2022-10-16T01:04:46;14.70;99.90
24158;DHT22;12316;50.904;4.200;2022-10-16T01:13:12;14.60;99.90
24158;DHT22;12316;50.904;4.200;2022-10-16T01:16:19;14.70;99.90
24158;DHT22;12316;50.904;4.200;2022-10-16T01:18:47;14.70;99.90
24158;DHT22;12316;50.904;4.200;2022-10-16T01:21:24;14.60;99.90
24158;DHT22;12316;50.904;4.200;2022-10-16T01:27:00;14.60;99.90
24158;DHT22;12316;50.904;4.200;2022-10-16T01:29:37;14.60;99.90
24158;DHT22;12316;50.904;4.200;2022-10-16T01:34:53;14.60;99.90
24158;DHT22;12316;50.904;4.200;2022-10-16T01:37:36;14.60;99.90
24158;DHT22;12316;50.904;4.200;2022-10-16T01:40:06;14.50;99.90
24158;DHT22;12316;50.904;4.200;2022-10-16T01:42:37;14.50;99.90
24158;DHT22;12316;50.904;4.200;2022-10-16T01:45:05;14.40;99.90
24158;DHT22;12316;50.904;4.200;2022-10-16T01:47:34;14.50;99.90
24158;DHT22;12316;50.904;4.200;2022-10-16T01:50:02;14.50;99.90
24158;DHT22;12316;50.904;4.200;2022-10-16T01:52:30;14.50;99.90
24158;DHT22;12316;50.904;4.200;2022-10-16T01:54:58;14.40;99.90
24158;DHT22;12316;50.904;4.200;2022-10-16T01:57:26;14.40;99.90
24158;DHT22;12316;50.904;4.200;2022-10-16T01:59:56;14.40;99.90
24158;DHT22;12316;50.904;4.200;2022-10-16T02:02:27;14.40;99.90
24158;DHT22;12316;50.904;4.200;2022-10-16T02:05:05;14.50;99.90
24158;DHT22;12316;50.904;4.200;2022-10-16T02:07:34;14.50;99.90
24158;DHT22;12316;50.904;4.200;2022-10-16T02:10:00;14.50;99.90
24158;DHT22;12316;50.904;4.200;2022-10-16T02:12:32;14.50;99.90
24158;DHT22;12316;50.904;4.200;2022-10-16T02:14:58;14.40;99.90
24158;DHT22;12316;50.904;4.200;2022-10-16T02:17:24;14.40;99.90
24158;DHT22;12316;50.904;4.200;2022-10-16T02:19:53;14.50;99.90
24158;DHT22;12316;50.904;4.200;2022-10-16T02:22:30;14.40;99.90
24158;DHT22;12316;50.904;4.200;2022-10-16T02:27:35;14.40;99.90
24158;DHT22;12316;50.904;4.200;2022-10-16T02:30:17;14.50;99.90
24158;DHT22;12316;50.904;4.200;2022-10-16T02:32:47;14.50;99.90
24158;DHT22;12316;50.904;4.200;2022-10-16T02:35:13;14.50;99.90
24158;DHT22;12316;50.904;4.200;2022-10-16T02:37:40;14.50;99.90
24158;DHT22;12316;50.904;4.200;2022-10-16T02:40:07;14.50;99.90
24158;DHT22;12316;50.904;4.200;2022-10-16T02:42:35;14.40;99.90
24158;DHT22;12316;50.904;4.200;2022-10-16T02:45:01;14.40;99.90
24158;DHT22;12316;50.904;4.200;2022-10-16T02:47:26;14.40;99.90
24158;DHT22;12316;50.904;4.200;2022-10-16T02:49:52;14.40;99.90
24158;DHT22;12316;50.904;4.200;2022-10-16T02:52:17;14.50;99.90
24158;DHT22;12316;50.904;4.200;2022-10-16T02:54:43;14.40;99.90
24158;DHT22;12316;50.904;4.200;2022-10-16T02:57:08;14.40;99.90
24158;DHT22;12316;50.904;4.200;2022-10-16T02:59:34;14.50;99.90
24158;DHT22;12316;50.904;4.200;2022-10-16T03:02:00;14.50;99.90
24158;DHT22;12316;50.904;4.200;2022-10-16T03:04:25;14.50;99.90
24158;DHT22;12316;50.904;4.200;2022-10-16T03:06:51;14.50;99.90
24158;DHT22;12316;50.904;4.200;2022-10-16T03:09:16;14.50;99.90
24158;DHT22;12316;50.904;4.200;2022-10-16T03:11:42;14.50;99.90
24158;DHT22;12316;50.904;4.200;2022-10-16T03:14:07;14.50;99.90
24158;DHT22;12316;50.904;4.200;2022-10-16T03:16:33;14.50;99.90
24158;DHT22;12316;50.904;4.200;2022-10-16T03:18:58;14.50;99.90
24158;DHT22;12316;50.904;4.200;2022-10-16T03:21:24;14.50;99.90
24158;DHT22;12316;50.904;4.200;2022-10-16T03:23:50;14.50;99.90
24158;DHT22;12316;50.904;4.200;2022-10-16T03:26:15;14.50;99.90
24158;DHT22;12316;50.904;4.200;2022-10-16T03:28:41;14.50;99.90
24158;DHT22;12316;50.904;4.200;2022-10-16T03:31:06;14.50;99.90
24158;DHT22;12316;50.904;4.200;2022-10-16T03:33:33;14.60;99.90
24158;DHT22;12316;50.904;4.200;2022-10-16T03:35:59;14.50;99.90
24158;DHT22;12316;50.904;4.200;2022-10-16T03:38:25;14.50;99.90
24158;DHT22;12316;50.904;4.200;2022-10-16T03:40:51;14.40;99.90
24158;DHT22;12316;50.904;4.200;2022-10-16T03:43:16;14.50;99.90
24158;DHT22;12316;50.904;4.200;2022-10-16T03:45:42;14.50;99.90
24158;DHT22;12316;50.904;4.200;2022-10-16T03:48:07;14.40;99.90
24158;DHT22;12316;50.904;4.200;2022-10-16T03:50:33;14.50;99.90
24158;DHT22;12316;50.904;4.200;2022-10-16T03:52:58;14.50;99.90
24158;DHT22;12316;50.904;4.200;2022-10-16T03:55:24;14.50;99.90
24158;DHT22;12316;50.904;4.200;2022-10-16T03:57:49;14.50;99.90
24158;DHT22;12316;50.904;4.200;2022-10-16T04:00:15;14.40;99.90
24158;DHT22;12316;50.904;4.200;2022-10-16T04:02:41;14.40;99.90
24158;DHT22;12316;50.904;4.200;2022-10-16T04:05:07;14.40;99.90
24158;DHT22;12316;50.904;4.200;2022-10-16T04:07:32;14.40;99.90
24158;DHT22;12316;50.904;4.200;2022-10-16T04:09:58;14.40;99.90
24158;DHT22;12316;50.904;4.200;2022-10-16T04:12:25;14.40;99.90
24158;DHT22;12316;50.904;4.200;2022-10-16T04:14:50;14.50;99.90
24158;DHT22;12316;50.904;4.200;2022-10-16T04:17:16;14.50;99.90
24158;DHT22;12316;50.904;4.200;2022-10-16T04:19:42;14.50;99.90
24158;DHT22;12316;50.904;4.200;2022-10-16T04:22:07;14.50;99.90
24158;DHT22;12316;50.904;4.200;2022-10-16T04:24:33;14.40;99.90
24158;DHT22;12316;50.904;4.200;2022-10-16T04:26:58;14.40;99.90
24158;DHT22;12316;50.904;4.200;2022-10-16T04:29:24;14.50;99.90
24158;DHT22;12316;50.904;4.200;2022-10-16T04:31:50;14.40;99.90
24158;DHT22;12316;50.904;4.200;2022-10-16T04:34:15;14.40;99.90
24158;DHT22;12316;50.904;4.200;2022-10-16T04:36:41;14.40;99.90
24158;DHT22;12316;50.904;4.200;2022-10-16T04:39:06;14.40;99.90
24158;DHT22;12316;50.904;4.200;2022-10-16T04:41:32;14.40;99.90
24158;DHT22;12316;50.904;4.200;2022-10-16T04:43:57;14.40;99.90
24158;DHT22;12316;50.904;4.200;2022-10-16T04:46:23;14.40;99.90
24158;DHT22;12316;50.904;4.200;2022-10-16T04:48:48;14.40;99.90
24158;DHT22;12316;50.904;4.200;2022-10-16T04:51:14;14.40;99.90
24158;DHT22;12316;50.904;4.200;2022-10-16T04:53:39;14.30;99.90
24158;DHT22;12316;50.904;4.200;2022-10-16T04:56:05;14.30;99.90
24158;DHT22;12316;50.904;4.200;2022-10-16T04:58:31;14.30;99.90
24158;DHT22;12316;50.904;4.200;2022-10-16T05:00:56;14.30;99.90
24158;DHT22;12316;50.904;4.200;2022-10-16T05:03:22;14.30;99.90
24158;DHT22;12316;50.904;4.200;2022-10-16T05:05:47;14.20;99.90
24158;DHT22;12316;50.904;4.200;2022-10-16T05:08:14;14.20;99.90
24158;DHT22;12316;50.904;4.200;2022-10-16T05:10:44;14.10;99.90
24158;DHT22;12316;50.904;4.200;2022-10-16T05:13:10;14.10;99.90
24158;DHT22;12316;50.904;4.200;2022-10-16T05:15:36;14.10;99.90
24158;DHT22;12316;50.904;4.200;2022-10-16T05:18:02;14.20;99.90
24158;DHT22;12316;50.904;4.200;2022-10-16T05:20:27;14.10;99.90
24158;DHT22;12316;50.904;4.200;2022-10-16T05:22:53;14.10;99.90
24158;DHT22;12316;50.904;4.200;2022-10-16T05:25:19;14.10;99.90
24158;DHT22;12316;50.904;4.200;2022-10-16T05:27:48;14.10;99.90
24158;DHT22;12316;50.904;4.200;2022-10-16T05:30:14;14.10;99.90
24158;DHT22;12316;50.904;4.200;2022-10-16T05:32:40;14.10;99.90
24158;DHT22;12316;50.904;4.200;2022-10-16T05:35:05;14.00;99.90
24158;DHT22;12316;50.904;4.200;2022-10-16T05:37:31;14.00;99.90
24158;DHT22;12316;50.904;4.200;2022-10-16T05:39:57;14.00;99.90
24158;DHT22;12316;50.904;4.200;2022-10-16T05:42:22;14.00;99.90
24158;DHT22;12316;50.904;4.200;2022-10-16T05:44:48;14.00;99.90
24158;DHT22;12316;50.904;4.200;2022-10-16T05:47:13;14.10;99.90
24158;DHT22;12316;50.904;4.200;2022-10-16T05:49:40;14.00;99.90
24158;DHT22;12316;50.904;4.200;2022-10-16T05:52:06;14.00;99.90
24158;DHT22;12316;50.904;4.200;2022-10-16T05:54:32;14.10;99.90
24158;DHT22;12316;50.904;4.200;2022-10-16T05:56:57;14.20;99.90
24158;DHT22;12316;50.904;4.200;2022-10-16T05:59:23;14.10;99.90
24158;DHT22;12316;50.904;4.200;2022-10-16T06:01:48;14.10;99.90
24158;DHT22;12316;50.904;4.200;2022-10-16T06:04:14;14.20;99.90
24158;DHT22;12316;50.904;4.200;2022-10-16T06:06:40;14.30;99.90
24158;DHT22;12316;50.904;4.200;2022-10-16T06:09:05;14.30;99.90
24158;DHT22;12316;50.904;4.200;2022-10-16T06:11:33;14.40;99.90
24158;DHT22;12316;50.904;4.200;2022-10-16T06:14:00;14.40;99.90
24158;DHT22;12316;50.904;4.200;2022-10-16T06:16:28;14.50;99.90
24158;DHT22;12316;50.904;4.200;2022-10-16T06:18:55;14.50;99.90
24158;DHT22;12316;50.904;4.200;2022-10-16T06:21:26;14.50;99.90
24158;DHT22;12316;50.904;4.200;2022-10-16T06:23:52;14.60;99.90
24158;DHT22;12316;50.904;4.200;2022-10-16T06:26:20;14.60;99.90
24158;DHT22;12316;50.904;4.200;2022-10-16T06:28:46;14.60;99.90
24158;DHT22;12316;50.904;4.200;2022-10-16T06:31:12;14.70;99.90
24158;DHT22;12316;50.904;4.200;2022-10-16T06:33:38;14.70;99.90
24158;DHT22;12316;50.904;4.200;2022-10-16T06:36:12;14.80;99.90
24158;DHT22;12316;50.904;4.200;2022-10-16T06:38:38;14.80;99.90
24158;DHT22;12316;50.904;4.200;2022-10-16T06:41:05;14.80;99.90
24158;DHT22;12316;50.904;4.200;2022-10-16T06:43:31;14.90;99.90
24158;DHT22;12316;50.904;4.200;2022-10-16T06:45:58;15.00;99.90
24158;DHT22;12316;50.904;4.200;2022-10-16T06:48:25;15.00;99.90
24158;DHT22;12316;50.904;4.200;2022-10-16T06:51:11;15.10;99.90
24158;DHT22;12316;50.904;4.200;2022-10-16T06:53:39;15.10;99.90
24158;DHT22;12316;50.904;4.200;2022-10-16T06:56:10;15.10;99.90
24158;DHT22;12316;50.904;4.200;2022-10-16T06:58:36;15.00;99.90
24158;DHT22;12316;50.904;4.200;2022-10-16T07:01:03;15.00;99.90
24158;DHT22;12316;50.904;4.200;2022-10-16T07:03:29;15.00;99.90
24158;DHT22;12316;50.904;4.200;2022-10-16T07:05:54;15.00;99.90
24158;DHT22;12316;50.904;4.200;2022-10-16T07:08:20;15.00;99.90
24158;DHT22;12316;50.904;4.200;2022-10-16T07:10:45;15.00;99.90
24158;DHT22;12316;50.904;4.200;2022-10-16T07:13:11;15.10;99.90
24158;DHT22;12316;50.904;4.200;2022-10-16T07:15:40;15.10;99.90
24158;DHT22;12316;50.904;4.200;2022-10-16T07:18:06;15.20;99.90
24158;DHT22;12316;50.904;4.200;2022-10-16T07:20:32;15.20;99.90
24158;DHT22;12316;50.904;4.200;2022-10-16T07:22:58;15.20;99.90
24158;DHT22;12316;50.904;4.200;2022-10-16T07:25:23;15.30;99.90
24158;DHT22;12316;50.904;4.200;2022-10-16T07:27:49;15.30;99.90
24158;DHT22;12316;50.904;4.200;2022-10-16T07:30:14;15.40;99.90
24158;DHT22;12316;50.904;4.200;2022-10-16T07:32:40;15.40;99.90
24158;DHT22;12316;50.904;4.200;2022-10-16T07:35:06;15.50;99.90
24158;DHT22;12316;50.904;4.200;2022-10-16T07:37:32;15.50;99.90
24158;DHT22;12316;50.904;4.200;2022-10-16T07:39:58;15.60;99.90
24158;DHT22;12316;50.904;4.200;2022-10-16T07:42:23;15.60;99.90
24158;DHT22;12316;50.904;4.200;2022-10-16T07:44:49;15.80;99.90
24158;DHT22;12316;50.904;4.200;2022-10-16T07:47:14;15.80;99.90
24158;DHT22;12316;50.904;4.200;2022-10-16T07:49:40;15.90;99.90
24158;DHT22;12316;50.904;4.200;2022-10-16T07:52:05;16.00;99.90
24158;DHT22;12316;50.904;4.200;2022-10-16T07:54:31;16.00;99.90
24158;DHT22;12316;50.904;4.200;2022-10-16T07:56:56;16.00;99.90
24158;DHT22;12316;50.904;4.200;2022-10-16T07:59:22;16.00;99.90
24158;DHT22;12316;50.904;4.200;2022-10-16T08:01:49;16.10;99.90
24158;DHT22;12316;50.904;4.200;2022-10-16T08:04:15;16.20;99.90
24158;DHT22;12316;50.904;4.200;2022-10-16T08:06:41;16.20;99.90
24158;DHT22;12316;50.904;4.200;2022-10-16T08:09:08;16.20;99.90
24158;DHT22;12316;50.904;4.200;2022-10-16T08:11:34;16.30;99.90
24158;DHT22;12316;50.904;4.200;2022-10-16T08:14:00;16.40;99.90
24158;DHT22;12316;50.904;4.200;2022-10-16T08:16:25;16.30;99.90
24158;DHT22;12316;50.904;4.200;2022-10-16T08:18:51;16.40;99.90
24158;DHT22;12316;50.904;4.200;2022-10-16T08:21:19;16.50;99.90
24158;DHT22;12316;50.904;4.200;2022-10-16T08:23:45;16.50;99.90
24158;DHT22;12316;50.904;4.200;2022-10-16T08:26:12;16.50;99.90
24158;DHT22;12316;50.904;4.200;2022-10-16T08:28:38;16.60;99.90
24158;DHT22;12316;50.904;4.200;2022-10-16T08:31:12;16.60;99.90
24158;DHT22;12316;50.904;4.200;2022-10-16T08:33:40;16.70;99.90
24158;DHT22;12316;50.904;4.200;2022-10-16T08:36:06;16.80;99.90
24158;DHT22;12316;50.904;4.200;2022-10-16T08:38:33;16.80;99.90
24158;DHT22;12316;50.904;4.200;2022-10-16T08:46:51;17.00;99.90
24158;DHT22;12316;50.904;4.200;2022-10-16T08:49:20;17.00;99.90
24158;DHT22;12316;50.904;4.200;2022-10-16T08:51:46;17.10;99.90
24158;DHT22;12316;50.904;4.200;2022-10-16T08:54:34;17.10;99.90
24158;DHT22;12316;50.904;4.200;2022-10-16T08:57:22;17.10;99.90
24158;DHT22;12316;50.904;4.200;2022-10-16T08:59:49;17.10;99.90
24158;DHT22;12316;50.904;4.200;2022-10-16T09:02:37;17.20;99.90
24158;DHT22;12316;50.904;4.200;2022-10-16T09:08:17;17.30;99.90
24158;DHT22;12316;50.904;4.200;2022-10-16T09:11:01;17.20;99.90
24158;DHT22;12316;50.904;4.200;2022-10-16T09:13:41;17.30;99.90
24158;DHT22;12316;50.904;4.200;2022-10-16T09:16:17;17.40;99.90
24158;DHT22;12316;50.904;4.200;2022-10-16T09:19:24;17.40;99.90
24158;DHT22;12316;50.904;4.200;2022-10-16T09:21:52;17.60;99.90
24158;DHT22;12316;50.904;4.200;2022-10-16T09:24:21;17.70;99.90
24158;DHT22;12316;50.904;4.200;2022-10-16T09:26:47;17.70;99.90
24158;DHT22;12316;50.904;4.200;2022-10-16T09:29:14;17.80;99.90
24158;DHT22;12316;50.904;4.200;2022-10-16T09:31:40;17.80;99.90
24158;DHT22;12316;50.904;4.200;2022-10-16T09:34:30;17.90;99.90
24158;DHT22;12316;50.904;4.200;2022-10-16T09:36:57;17.90;99.90
24158;DHT22;12316;50.904;4.200;2022-10-16T09:39:24;17.90;99.90
24158;DHT22;12316;50.904;4.200;2022-10-16T09:41:50;18.00;99.90
24158;DHT22;12316;50.904;4.200;2022-10-16T09:44:28;18.10;99.90
24158;DHT22;12316;50.904;4.200;2022-10-16T09:47:11;18.10;99.90
24158;DHT22;12316;50.904;4.200;2022-10-16T09:49:37;18.20;99.90
24158;DHT22;12316;50.904;4.200;2022-10-16T09:52:04;18.30;99.90
24158;DHT22;12316;50.904;4.200;2022-10-16T09:54:30;18.30;99.90
24158;DHT22;12316;50.904;4.200;2022-10-16T09:57:07;18.30;99.90
24158;DHT22;12316;50.904;4.200;2022-10-16T09:59:46;18.40;99.90
24158;DHT22;12316;50.904;4.200;2022-10-16T10:02:15;18.40;99.90
24158;DHT22;12316;50.904;4.200;2022-10-16T10:04:47;18.40;99.90
24158;DHT22;12316;50.904;4.200;2022-10-16T10:07:17;18.50;99.90
24158;DHT22;12316;50.904;4.200;2022-10-16T10:09:45;18.60;99.90
24158;DHT22;12316;50.904;4.200;2022-10-16T10:12:29;18.60;99.90
24158;DHT22;12316;50.904;4.200;2022-10-16T10:15:03;18.70;99.90
24158;DHT22;12316;50.904;4.200;2022-10-16T10:17:29;18.90;99.90
24158;DHT22;12316;50.904;4.200;2022-10-16T10:19:56;19.00;99.90
24158;DHT22;12316;50.904;4.200;2022-10-16T10:22:40;19.10;99.90
24158;DHT22;12316;50.904;4.200;2022-10-16T10:28:07;19.60;99.90
24158;DHT22;12316;50.904;4.200;2022-10-16T10:36:22;19.80;99.90
24158;DHT22;12316;50.904;4.200;2022-10-16T10:38:54;19.90;99.90
24158;DHT22;12316;50.904;4.200;2022-10-16T10:44:49;20.00;99.90
24158;DHT22;12316;50.904;4.200;2022-10-16T10:54:50;20.20;99.90
24158;DHT22;12316;50.904;4.200;2022-10-16T11:00:13;20.30;99.90
24158;DHT22;12316;50.904;4.200;2022-10-16T11:08:06;20.50;99.90
24158;DHT22;12316;50.904;4.200;2022-10-16T11:13:26;20.50;99.90
24158;DHT22;12316;50.904;4.200;2022-10-16T11:15:58;20.60;99.90
24158;DHT22;12316;50.904;4.200;2022-10-16T11:18:45;20.60;99.90
24158;DHT22;12316;50.904;4.200;2022-10-16T11:21:14;20.80;99.90
24158;DHT22;12316;50.904;4.200;2022-10-16T11:26:16;21.00;99.90
24158;DHT22;12316;50.904;4.200;2022-10-16T11:28:49;21.10;99.90
24158;DHT22;12316;50.904;4.200;2022-10-16T11:31:28;21.20;99.90
24158;DHT22;12316;50.904;4.200;2022-10-16T11:34:08;21.20;99.90
24158;DHT22;12316;50.904;4.200;2022-10-16T11:37:01;21.10;99.90
24158;DHT22;12316;50.904;4.200;2022-10-16T11:39:30;21.20;99.90
24158;DHT22;12316;50.904;4.200;2022-10-16T11:42:18;21.10;99.90
24158;DHT22;12316;50.904;4.200;2022-10-16T11:47:45;21.10;99.90
24158;DHT22;12316;50.904;4.200;2022-10-16T11:50:38;21.10;99.90
24158;DHT22;12316;50.904;4.200;2022-10-16T11:53:24;21.20;99.90
24158;DHT22;12316;50.904;4.200;2022-10-16T11:55:52;21.00;99.90
24158;DHT22;12316;50.904;4.200;2022-10-16T11:59:07;21.10;99.90
24158;DHT22;12316;50.904;4.200;2022-10-16T12:01:33;21.00;99.90
24158;DHT22;12316;50.904;4.200;2022-10-16T12:06:44;20.80;99.90
24158;DHT22;12316;50.904;4.200;2022-10-16T12:09:36;20.70;99.90
24158;DHT22;12316;50.904;4.200;2022-10-16T12:12:01;20.60;99.90
24158;DHT22;12316;50.904;4.200;2022-10-16T12:14:34;20.60;99.90
24158;DHT22;12316;50.904;4.200;2022-10-16T12:17:04;20.60;99.90
24158;DHT22;12316;50.904;4.200;2022-10-16T12:19:59;20.60;99.90
24158;DHT22;12316;50.904;4.200;2022-10-16T12:22:28;20.90;99.90
24158;DHT22;12316;50.904;4.200;2022-10-16T12:24:54;21.10;99.90
24158;DHT22;12316;50.904;4.200;2022-10-16T12:27:24;21.20;99.90
24158;DHT22;12316;50.904;4.200;2022-10-16T12:29:58;21.10;99.90
24158;DHT22;12316;50.904;4.200;2022-10-16T12:32:38;21.10;99.90
24158;DHT22;12316;50.904;4.200;2022-10-16T12:35:06;21.20;99.90
24158;DHT22;12316;50.904;4.200;2022-10-16T12:37:42;21.10;99.90
24158;DHT22;12316;50.904;4.200;2022-10-16T12:40:28;21.10;99.90
24158;DHT22;12316;50.904;4.200;2022-10-16T12:42:54;21.00;99.90
24158;DHT22;12316;50.904;4.200;2022-10-16T12:45:30;20.90;99.90
24158;DHT22;12316;50.904;4.200;2022-10-16T12:47:58;20.90;99.90
24158;DHT22;12316;50.904;4.200;2022-10-16T12:50:34;21.00;99.90
24158;DHT22;12316;50.904;4.200;2022-10-16T12:53:01;21.30;99.90
24158;DHT22;12316;50.904;4.200;2022-10-16T12:55:42;21.50;99.90
24158;DHT22;12316;50.904;4.200;2022-10-16T12:58:23;21.70;99.90
24158;DHT22;12316;50.904;4.200;2022-10-16T13:01:03;21.90;99.90
24158;DHT22;12316;50.904;4.200;2022-10-16T13:09:34;22.20;99.90
24158;DHT22;12316;50.904;4.200;2022-10-16T13:15:16;22.40;99.90
24158;DHT22;12316;50.904;4.200;2022-10-16T13:18:02;22.40;99.90
24158;DHT22;12316;50.904;4.200;2022-10-16T13:28:40;22.00;99.90
24158;DHT22;12316;50.904;4.200;2022-10-16T13:31:15;22.00;99.90
24158;DHT22;12316;50.904;4.200;2022-10-16T13:33:46;22.00;99.90
24158;DHT22;12316;50.904;4.200;2022-10-16T13:36:24;22.10;99.90
24158;DHT22;12316;50.904;4.200;2022-10-16T13:39:19;22.20;99.90
24158;DHT22;12316;50.904;4.200;2022-10-16T13:41:46;22.30;99.90
24158;DHT22;12316;50.904;4.200;2022-10-16T13:44:15;22.50;99.90
24158;DHT22;12316;50.904;4.200;2022-10-16T13:46:43;22.40;99.90
24158;DHT22;12316;50.904;4.200;2022-10-16T13:49:16;22.30;99.90
24158;DHT22;12316;50.904;4.200;2022-10-16T13:52:03;22.30;99.90
24158;DHT22;12316;50.904;4.200;2022-10-16T13:54:28;22.40;99.90
24158;DHT22;12316;50.904;4.200;2022-10-16T13:56:54;22.40;99.90
24158;DHT22;12316;50.904;4.200;2022-10-16T13:59:33;22.40;99.90
24158;DHT22;12316;50.904;4.200;2022-10-16T14:02:00;22.40;99.90
24158;DHT22;12316;50.904;4.200;2022-10-16T14:04:32;22.40;99.90
24158;DHT22;12316;50.904;4.200;2022-10-16T14:06:58;22.40;99.90
24158;DHT22;12316;50.904;4.200;2022-10-16T14:09:26;22.40;99.90
24158;DHT22;12316;50.904;4.200;2022-10-16T14:12:06;22.50;99.90
24158;DHT22;12316;50.904;4.200;2022-10-16T14:14:44;22.50;99.90
24158;DHT22;12316;50.904;4.200;2022-10-16T14:17:35;22.50;99.90
24158;DHT22;12316;50.904;4.200;2022-10-16T14:20:03;22.50;99.90
24158;DHT22;12316;50.904;4.200;2022-10-16T14:22:39;22.60;99.90
24158;DHT22;12316;50.904;4.200;2022-10-16T14:27:59;22.60;99.90
24158;DHT22;12316;50.904;4.200;2022-10-16T14:30:25;22.40;99.90
24158;DHT22;12316;50.904;4.200;2022-10-16T14:33:02;22.20;99.90
24158;DHT22;12316;50.904;4.200;2022-10-16T14:35:31;21.90;99.90
24158;DHT22;12316;50.904;4.200;2022-10-16T14:37:58;21.80;99.90
24158;DHT22;12316;50.904;4.200;2022-10-16T14:40:33;21.60;99.90
24158;DHT22;12316;50.904;4.200;2022-10-16T14:43:01;21.40;99.90
24158;DHT22;12316;50.904;4.200;2022-10-16T14:45:32;21.40;99.90
24158;DHT22;12316;50.904;4.200;2022-10-16T14:48:01;21.30;99.90
24158;DHT22;12316;50.904;4.200;2022-10-16T14:50:28;21.30;99.90
24158;DHT22;12316;50.904;4.200;2022-10-16T14:52:54;21.40;99.90
24158;DHT22;12316;50.904;4.200;2022-10-16T14:55:20;21.50;99.90
24158;DHT22;12316;50.904;4.200;2022-10-16T14:57:46;21.50;99.90
24158;DHT22;12316;50.904;4.200;2022-10-16T15:00:20;21.60;99.90
24158;DHT22;12316;50.904;4.200;2022-10-16T15:02:48;21.50;99.90
24158;DHT22;12316;50.904;4.200;2022-10-16T15:05:18;21.50;99.90
24158;DHT22;12316;50.904;4.200;2022-10-16T15:07:44;21.40;99.90
24158;DHT22;12316;50.904;4.200;2022-10-16T15:10:12;21.40;99.90
24158;DHT22;12316;50.904;4.200;2022-10-16T15:12:37;21.40;99.90
24158;DHT22;12316;50.904;4.200;2022-10-16T15:17:50;21.40;99.90
24158;DHT22;12316;50.904;4.200;2022-10-16T15:20:19;21.50;99.90
24158;DHT22;12316;50.904;4.200;2022-10-16T15:22:45;21.50;99.90
24158;DHT22;12316;50.904;4.200;2022-10-16T15:27:58;21.40;99.90
24158;DHT22;12316;50.904;4.200;2022-10-16T15:30:24;21.40;99.90
24158;DHT22;12316;50.904;4.200;2022-10-16T15:32:49;21.30;99.90
24158;DHT22;12316;50.904;4.200;2022-10-16T15:35:15;21.30;99.90
24158;DHT22;12316;50.904;4.200;2022-10-16T15:37:41;21.20;99.90
24158;DHT22;12316;50.904;4.200;2022-10-16T15:40:08;21.20;99.90
24158;DHT22;12316;50.904;4.200;2022-10-16T15:42:34;21.10;99.90
24158;DHT22;12316;50.904;4.200;2022-10-16T15:45:00;21.00;99.90
24158;DHT22;12316;50.904;4.200;2022-10-16T15:47:25;20.90;99.90
24158;DHT22;12316;50.904;4.200;2022-10-16T15:49:51;20.90;99.90
24158;DHT22;12316;50.904;4.200;2022-10-16T15:52:17;20.80;99.90
24158;DHT22;12316;50.904;4.200;2022-10-16T15:54:43;20.70;99.90
24158;DHT22;12316;50.904;4.200;2022-10-16T15:57:08;20.60;99.90
24158;DHT22;12316;50.904;4.200;2022-10-16T15:59:34;20.60;99.90
24158;DHT22;12316;50.904;4.200;2022-10-16T16:02:00;20.50;99.90
24158;DHT22;12316;50.904;4.200;2022-10-16T16:04:25;20.50;99.90
24158;DHT22;12316;50.904;4.200;2022-10-16T16:06:51;20.40;99.90
24158;DHT22;12316;50.904;4.200;2022-10-16T16:09:17;20.30;99.90
24158;DHT22;12316;50.904;4.200;2022-10-16T16:11:42;20.20;99.90
24158;DHT22;12316;50.904;4.200;2022-10-16T16:14:12;20.20;99.90
24158;DHT22;12316;50.904;4.200;2022-10-16T16:16:38;20.10;99.90
24158;DHT22;12316;50.904;4.200;2022-10-16T16:19:05;20.00;99.90
24158;DHT22;12316;50.904;4.200;2022-10-16T16:21:32;19.90;99.90
24158;DHT22;12316;50.904;4.200;2022-10-16T16:23:58;19.90;99.90
24158;DHT22;12316;50.904;4.200;2022-10-16T16:26:26;19.90;99.90
24158;DHT22;12316;50.904;4.200;2022-10-16T16:28:54;19.80;99.90
24158;DHT22;12316;50.904;4.200;2022-10-16T16:31:25;19.80;99.90
24158;DHT22;12316;50.904;4.200;2022-10-16T16:33:51;19.70;99.90
24158;DHT22;12316;50.904;4.200;2022-10-16T16:36:17;19.70;99.90
24158;DHT22;12316;50.904;4.200;2022-10-16T16:38:46;19.60;99.90
24158;DHT22;12316;50.904;4.200;2022-10-16T16:41:13;19.50;99.90
24158;DHT22;12316;50.904;4.200;2022-10-16T16:43:39;19.50;99.90
24158;DHT22;12316;50.904;4.200;2022-10-16T16:46:05;19.40;99.90
24158;DHT22;12316;50.904;4.200;2022-10-16T16:48:31;19.40;99.90
24158;DHT22;12316;50.904;4.200;2022-10-16T16:51:09;19.30;99.90
24158;DHT22;12316;50.904;4.200;2022-10-16T16:53:37;19.30;99.90
24158;DHT22;12316;50.904;4.200;2022-10-16T16:56:03;19.30;99.90
24158;DHT22;12316;50.904;4.200;2022-10-16T16:58:29;19.20;99.90
24158;DHT22;12316;50.904;4.200;2022-10-16T17:00:55;19.20;99.90
24158;DHT22;12316;50.904;4.200;2022-10-16T17:03:20;19.20;99.90
24158;DHT22;12316;50.904;4.200;2022-10-16T17:06:05;19.10;99.90
24158;DHT22;12316;50.904;4.200;2022-10-16T17:08:31;19.00;99.90
24158;DHT22;12316;50.904;4.200;2022-10-16T17:10:57;19.10;99.90
24158;DHT22;12316;50.904;4.200;2022-10-16T17:13:24;19.00;99.90